Time;durP1;ratioP1;P1;durP2;ratioP2;P2;SDS_P1;SDS_P2;PMS_P1;PMS_P2;Temp;Humidity;BMP_temperature;BMP_pressure;BME280_temperature;BME280_humidity;BME280_pressure;Samples;Min_cycle;Max_cycle;Signal;HPM_P1;HPM_P2
2022/12/02 00:00:31;;;;;;;25.55;15.68;;;;;;;;;;5065694;28;20117;-58
2022/12/02 00:02:57;;;;;;;27.40;16.95;;;;;;;;;;5066645;28;20036;-58
2022/12/02 00:05:27;;;;;;;27.38;16.65;;;;;;;;;;5065709;28;20123;-58
2022/12/02 00:07:53;;;;;;;24.73;15.38;;;;;;;;;;5066267;28;20044;-58
2022/12/02 00:10:30;;;;;;;22.05;13.98;;;;;;;;;;5065993;28;20059;-58
2022/12/02 00:13:05;;;;;;;22.15;13.32;;;;;;;;;;5066493;28;20064;-58
2022/12/02 00:15:36;;;;;;;20.45;13.30;;;;;;;;;;5065477;28;20041;-58
2022/12/02 00:18:03;;;;;;;23.88;14.90;;;;;;;;;;5066766;28;20052;-58
2022/12/02 00:20:29;;;;;;;22.80;13.70;;;;;;;;;;5065951;28;20044;-58
2022/12/02 00:22:55;;;;;;;20.65;13.45;;;;;;;;;;5066071;28;20063;-58
2022/12/02 00:25:21;;;;;;;18.65;11.00;;;;;;;;;;5066068;28;20132;-58
2022/12/02 00:27:47;;;;;;;14.85;10.32;;;;;;;;;;5065678;28;20527;-58
2022/12/02 00:30:13;;;;;;;17.08;12.30;;;;;;;;;;5065572;28;20040;-57
2022/12/02 00:32:39;;;;;;;16.92;9.80;;;;;;;;;;5065974;28;20098;-58
2022/12/02 00:35:05;;;;;;;16.73;10.52;;;;;;;;;;5066289;28;20040;-58
2022/12/02 00:37:31;;;;;;;18.83;10.77;;;;;;;;;;5064937;28;20090;-58
2022/12/02 00:39:57;;;;;;;17.27;11.15;;;;;;;;;;5065875;28;20504;-58
2022/12/02 00:42:23;;;;;;;19.02;11.75;;;;;;;;;;5065790;28;20045;-58
2022/12/02 00:47:33;;;;;;;16.70;9.52;;;;;;;;;;5064224;28;20143;-58
2022/12/02 00:49:59;;;;;;;16.33;10.35;;;;;;;;;;5065161;28;20802;-58
2022/12/02 00:52:25;;;;;;;19.10;10.77;;;;;;;;;;5066616;28;20072;-58
2022/12/02 00:54:51;;;;;;;20.73;12.65;;;;;;;;;;5066002;28;20044;-58
2022/12/02 00:57:17;;;;;;;20.30;13.00;;;;;;;;;;5062572;28;20052;-58
2022/12/02 00:59:43;;;;;;;20.02;13.25;;;;;;;;;;5065772;28;20483;-58
2022/12/02 01:02:09;;;;;;;18.80;11.43;;;;;;;;;;5063887;28;20051;-58
2022/12/02 01:04:35;;;;;;;20.30;11.45;;;;;;;;;;5064256;28;20573;-58
2022/12/02 01:07:01;;;;;;;17.52;10.93;;;;;;;;;;5065933;28;20045;-58
2022/12/02 01:09:27;;;;;;;18.35;11.10;;;;;;;;;;5064695;28;20537;-58
2022/12/02 01:11:53;;;;;;;17.73;12.05;;;;;;;;;;5064718;28;20063;-58
2022/12/02 01:14:19;;;;;;;17.58;11.65;;;;;;;;;;5065155;28;20050;-58
2022/12/02 01:16:45;;;;;;;19.08;12.27;;;;;;;;;;5065657;28;20048;-58
2022/12/02 01:19:11;;;;;;;23.80;14.32;;;;;;;;;;5064427;28;20036;-58
2022/12/02 01:21:37;;;;;;;23.10;12.95;;;;;;;;;;5065199;28;21369;-58
2022/12/02 01:24:03;;;;;;;23.20;14.00;;;;;;;;;;5065361;28;20051;-57
2022/12/02 01:26:29;;;;;;;33.85;16.35;;;;;;;;;;5064069;28;20063;-58
2022/12/02 01:28:55;;;;;;;27.42;15.98;;;;;;;;;;5065420;28;20036;-58
2022/12/02 01:31:22;;;;;;;26.55;14.77;;;;;;;;;;5064546;28;20051;-58
2022/12/02 01:33:48;;;;;;;24.40;14.38;;;;;;;;;;5064676;28;20048;-58
2022/12/02 01:36:14;;;;;;;25.83;14.93;;;;;;;;;;5061440;28;20052;-58
2022/12/02 01:38:40;;;;;;;20.63;12.27;;;;;;;;;;5063699;28;20041;-58
2022/12/02 01:41:07;;;;;;;20.08;11.88;;;;;;;;;;5064633;28;19959;-58
2022/12/02 01:43:33;;;;;;;;;;;;;;;;;;5065053;28;20397;-58
2022/12/02 01:45:58;;;;;;;;;;;;;;;;;;5065247;28;19925;-58
2022/12/02 01:48:24;;;;;;;;;;;;;;;;;;5065046;28;19924;-58
2022/12/02 01:50:50;;;;;;;;;;;;;;;;;;5065767;28;20283;-58
2022/12/02 01:53:16;;;;;;;;;;;;;;;;;;5064731;28;20417;-58
2022/12/02 01:55:42;;;;;;;27.20;14.57;;;;;;;;;;5065205;28;19920;-58
2022/12/02 01:58:09;;;;;;;23.92;13.38;;;;;;;;;;5065411;28;20139;-58
2022/12/02 02:00:35;;;;;;;;;;;;;;;;;;5064206;28;20479;-58
2022/12/02 02:03:01;;;;;;;;;;;;;;;;;;5066005;28;19926;-58
2022/12/02 02:05:27;;;;;;;;;;;;;;;;;;5064958;28;19924;-58
2022/12/02 02:07:55;;;;;;;26.90;15.00;;;;;;;;;;5064977;28;20385;-58
2022/12/02 02:10:22;;;;;;;24.92;14.75;;;;;;;;;;5064838;28;20050;-57
2022/12/02 02:12:48;;;;;;;26.10;15.45;;;;;;;;;;5064576;28;20052;-57
2022/12/02 02:15:16;;;;;;;22.33;13.48;;;;;;;;;;5064312;28;20045;-58
2022/12/02 02:17:42;;;;;;;25.25;12.88;;;;;;;;;;5064837;28;20135;-58
2022/12/02 02:20:09;;;;;;;21.67;11.57;;;;;;;;;;5064667;28;20040;-58
2022/12/02 02:22:41;;;;;;;18.50;11.07;;;;;;;;;;5063255;28;20048;-58
2022/12/02 02:25:12;;;;;;;19.23;11.68;;;;;;;;;;5064925;28;20044;-58
2022/12/02 02:27:38;;;;;;;20.35;11.45;;;;;;;;;;5064398;28;20116;-58
2022/12/02 02:30:04;;;;;;;;;;;;;;;;;;5062137;28;19925;-58
2022/12/02 02:32:30;;;;;;;;;;;;;;;;;;5064680;28;19928;-58
2022/12/02 02:34:55;;;;;;;;;;;;;;;;;;5065191;28;19982;-58
2022/12/02 02:37:21;;;;;;;;;;;;;;;;;;5063558;28;20037;-57
2022/12/02 02:39:47;;;;;;;;;;;;;;;;;;5064522;28;20455;-57
2022/12/02 02:42:13;;;;;;;;;;;;;;;;;;5063943;28;19920;-58
2022/12/02 02:44:39;;;;;;;;;;;;;;;;;;5064095;28;19925;-58
2022/12/02 02:47:05;;;;;;;;;;;;;;;;;;5065276;28;19926;-58
2022/12/02 02:49:31;;;;;;;;;;;;;;;;;;5063718;28;20302;-57
2022/12/02 02:51:57;;;;;;;;;;;;;;;;;;5068456;28;19927;-57
2022/12/02 02:54:23;;;;;;;;;;;;;;;;;;5068144;28;19924;-57
2022/12/02 02:56:49;;;;;;;;;;;;;;;;;;5067756;28;20006;-57
2022/12/02 02:59:14;;;;;;;;;;;;;;;;;;5064484;28;20045;-58
2022/12/02 03:01:40;;;;;;;;;;;;;;;;;;5068183;28;19974;-58
2022/12/02 03:04:06;;;;;;;;;;;;;;;;;;5067520;28;19931;-57
2022/12/02 03:06:32;;;;;;;;;;;;;;;;;;5067555;28;19920;-57
2022/12/02 03:08:58;;;;;;;;;;;;;;;;;;5068743;28;20378;-58
2022/12/02 03:11:24;;;;;;;;;;;;;;;;;;5066897;28;19977;-58
2022/12/02 03:13:50;;;;;;;;;;;;;;;;;;5068034;28;19928;-57
2022/12/02 03:16:16;;;;;;;;;;;;;;;;;;5068142;28;19924;-58
2022/12/02 03:18:42;;;;;;;;;;;;;;;;;;5067163;28;20007;-58
2022/12/02 03:21:08;;;;;;;;;;;;;;;;;;5068125;28;19970;-58
2022/12/02 03:23:33;;;;;;;;;;;;;;;;;;5066407;28;20391;-57
2022/12/02 03:25:59;;;;;;;;;;;;;;;;;;5064983;28;20306;-58
2022/12/02 03:28:25;;;;;;;;;;;;;;;;;;5067674;28;19963;-57
2022/12/02 03:30:51;;;;;;;;;;;;;;;;;;5068251;28;19920;-58
2022/12/02 03:33:17;;;;;;;;;;;;;;;;;;5067059;28;19974;-57
2022/12/02 03:35:43;;;;;;;;;;;;;;;;;;5067868;28;19921;-57
2022/12/02 03:38:09;;;;;;;;;;;;;;;;;;5067951;28;19924;-57
2022/12/02 03:40:35;;;;;;;;;;;;;;;;;;5065635;28;20283;-58
2022/12/02 03:43:01;;;;;;;;;;;;;;;;;;5067436;28;19928;-57
2022/12/02 03:45:26;;;;;;;;;;;;;;;;;;5065827;28;19920;-57
2022/12/02 03:47:53;;;;;;;22.48;12.65;;;;;;;;;;5065759;28;19943;-58
2022/12/02 03:50:19;;;;;;;21.08;12.52;;;;;;;;;;5066518;28;20038;-57
2022/12/02 03:52:45;;;;;;;22.92;11.55;;;;;;;;;;5066572;28;20044;-57
2022/12/02 03:55:11;;;;;;;24.80;12.15;;;;;;;;;;5062279;28;20045;-57
2022/12/02 03:57:39;;;;;;;25.38;14.35;;;;;;;;;;5066511;28;20117;-57
2022/12/02 04:00:05;;;;;;;20.75;11.88;;;;;;;;;;5066210;28;20055;-57
2022/12/02 04:02:31;;;;;;;21.20;11.93;;;;;;;;;;5064868;28;20093;-57
2022/12/02 04:04:57;;;;;;;18.92;10.30;;;;;;;;;;5066329;28;20036;-57
2022/12/02 04:07:23;;;;;;;19.10;11.18;;;;;;;;;;5065583;28;20149;-57
2022/12/02 04:09:49;;;;;;;16.40;9.45;;;;;;;;;;5066401;28;20672;-57
2022/12/02 04:12:15;;;;;;;16.55;9.40;;;;;;;;;;5099104;27;20067;-58
2022/12/02 04:14:41;;;;;;;11.73;7.82;;;;;;;;;;5065719;28;20046;-58
2022/12/02 04:17:07;;;;;;;14.00;9.02;;;;;;;;;;5066700;28;20483;-58
2022/12/02 04:19:33;;;;;;;15.90;9.65;;;;;;;;;;5065829;28;20043;-58
2022/12/02 04:21:59;;;;;;;14.02;8.95;;;;;;;;;;5065837;28;20049;-57
2022/12/02 04:24:27;;;;;;;17.75;10.95;;;;;;;;;;5066130;28;20102;-58
2022/12/02 04:26:54;;;;;;;16.08;9.75;;;;;;;;;;5065790;28;20051;-57
2022/12/02 04:29:20;;;;;;;14.90;8.25;;;;;;;;;;5065027;28;20053;-58
2022/12/02 04:31:46;;;;;;;15.43;10.00;;;;;;;;;;5065836;28;20459;-58
2022/12/02 04:34:12;;;;;;;13.70;7.75;;;;;;;;;;5066004;28;20072;-57
2022/12/02 04:36:38;;;;;;;16.50;9.70;;;;;;;;;;5065123;28;20075;-57
2022/12/02 04:39:04;;;;;;;17.67;9.35;;;;;;;;;;5065981;28;20704;-57
2022/12/02 04:41:30;;;;;;;15.38;9.25;;;;;;;;;;5064636;28;20068;-57
2022/12/02 04:43:56;;;;;;;14.48;8.25;;;;;;;;;;5065338;28;20064;-57
2022/12/02 04:46:22;;;;;;;13.02;7.90;;;;;;;;;;5065729;28;20044;-58
2022/12/02 04:48:48;;;;;;;11.98;7.72;;;;;;;;;;5065207;28;20372;-58
2022/12/02 04:51:14;;;;;;;11.43;7.10;;;;;;;;;;5065801;28;20048;-58
2022/12/02 04:53:40;;;;;;;11.80;6.40;;;;;;;;;;5065430;28;20049;-57
2022/12/02 04:56:06;;;;;;;12.40;7.45;;;;;;;;;;5065449;28;20052;-58
2022/12/02 04:58:32;;;;;;;9.60;6.32;;;;;;;;;;5064835;28;20377;-57
2022/12/02 05:00:58;;;;;;;12.77;7.63;;;;;;;;;;5064901;28;20044;-58
2022/12/02 05:03:24;;;;;;;15.43;9.25;;;;;;;;;;5064776;28;20047;-58
2022/12/02 05:05:50;;;;;;;14.27;8.55;;;;;;;;;;5065377;28;20623;-57
2022/12/02 05:08:16;;;;;;;14.95;8.80;;;;;;;;;;5062069;28;20055;-57
2022/12/02 05:10:42;;;;;;;12.73;7.70;;;;;;;;;;5064996;28;20043;-58
2022/12/02 05:13:08;;;;;;;15.82;9.00;;;;;;;;;;5064910;28;20091;-57
2022/12/02 05:15:34;;;;;;;14.27;8.40;;;;;;;;;;5064797;28;20060;-57
2022/12/02 05:18:00;;;;;;;14.75;8.77;;;;;;;;;;5064731;28;20079;-58
2022/12/02 05:20:26;;;;;;;14.45;8.07;;;;;;;;;;5064090;28;20079;-58
2022/12/02 05:22:52;;;;;;;20.92;11.85;;;;;;;;;;5064843;28;20041;-58
2022/12/02 05:25:18;;;;;;;17.73;10.57;;;;;;;;;;5064406;28;20380;-57
2022/12/02 05:27:44;;;;;;;19.42;10.98;;;;;;;;;;5065425;28;20044;-57
2022/12/02 05:30:11;;;;;;;21.85;10.10;;;;;;;;;;5065065;28;20128;-57
2022/12/02 05:32:37;;;;;;;;;;;;;;;;;;5064429;28;20054;-58
2022/12/02 05:35:02;;;;;;;;;;;;;;;;;;5066030;28;20375;-57
2022/12/02 05:37:28;;;;;;;;;;;;;;;;;;5067760;28;19924;-57
2022/12/02 05:39:54;;;;;;;;;;;;;;;;;;5065395;28;19946;-57
2022/12/02 05:42:20;;;;;;;;;;;;;;;;;;5065366;28;19925;-58
2022/12/02 05:44:46;;;;;;;;;;;;;;;;;;5065874;28;20354;-58
2022/12/02 05:47:12;;;;;;;;;;;;;;;;;;5064968;28;19920;-57
2022/12/02 05:49:38;;;;;;;;;;;;;;;;;;5064501;28;19927;-57
2022/12/02 05:52:04;;;;;;;;;;;;;;;;;;5064884;28;19920;-57
2022/12/02 05:54:30;;;;;;;;;;;;;;;;;;5063453;28;20001;-57
2022/12/02 05:56:56;;;;;;;;;;;;;;;;;;5065665;28;19960;-57
2022/12/02 05:59:22;;;;;;;;;;;;;;;;;;5064329;28;19920;-58
2022/12/02 06:01:48;;;;;;;;;;;;;;;;;;5065124;28;19920;-57
2022/12/02 06:04:14;;;;;;;;;;;;;;;;;;5065665;28;19924;-57
2022/12/02 06:06:40;;;;;;;;;;;;;;;;;;5064441;28;20559;-57
2022/12/02 06:09:06;;;;;;;;;;;;;;;;;;5065466;28;19966;-57
2022/12/02 06:11:33;;;;;;;;;;;;;;;;;;5065170;28;20770;-57
2022/12/02 06:13:59;;;;;;;;;;;;;;;;;;5064512;28;19978;-57
2022/12/02 06:16:25;;;;;;;;;;;;;;;;;;5064931;28;19928;-58
2022/12/02 06:18:51;;;;;;;;;;;;;;;;;;5065483;28;19920;-57
2022/12/02 06:21:17;;;;;;;;;;;;;;;;;;5064452;28;19928;-58
2022/12/02 06:23:43;;;;;;;;;;;;;;;;;;5065067;28;20019;-57
2022/12/02 06:26:09;;;;;;;;;;;;;;;;;;5067252;28;20026;-57
2022/12/02 06:28:35;;;;;;;;;;;;;;;;;;5067667;28;19943;-58
2022/12/02 06:31:01;;;;;;;;;;;;;;;;;;5068787;28;19925;-57
2022/12/02 06:33:27;;;;;;;;;;;;;;;;;;5068329;28;19924;-58
2022/12/02 06:35:53;;;;;;;;;;;;;;;;;;5068573;28;19983;-58
2022/12/02 06:38:19;;;;;;;;;;;;;;;;;;5066342;28;20298;-57
2022/12/02 06:40:45;;;;;;;;;;;;;;;;;;5068722;28;19927;-57
2022/12/02 06:43:11;;;;;;;;;;;;;;;;;;5066022;28;19971;-57
2022/12/02 06:45:37;;;;;;;;;;;;;;;;;;5067735;28;19924;-58
2022/12/02 06:48:02;;;;;;;;;;;;;;;;;;5071016;28;19920;-59
2022/12/02 06:50:28;;;;;;;;;;;;;;;;;;5070395;28;19924;-58
2022/12/02 06:52:54;;;;;;;;;;;;;;;;;;5068907;28;19920;-58
2022/12/02 06:55:20;;;;;;;;;;;;;;;;;;5067292;28;19970;-58
2022/12/02 06:57:46;;;;;;;;;;;;;;;;;;5068288;28;19931;-58
2022/12/02 07:00:12;;;;;;;;;;;;;;;;;;5068734;28;19928;-56
2022/12/02 07:02:38;;;;;;;;;;;;;;;;;;5067263;28;20371;-56
2022/12/02 07:05:04;;;;;;;;;;;;;;;;;;5068671;28;19920;-56
2022/12/02 07:07:30;;;;;;;;;;;;;;;;;;5067716;28;19928;-56
2022/12/02 07:09:55;;;;;;;;;;;;;;;;;;5067346;28;19943;-56
2022/12/02 07:12:21;;;;;;;;;;;;;;;;;;5067549;28;19920;-57
2022/12/02 07:14:47;;;;;;;;;;;;;;;;;;5067907;28;19924;-56
2022/12/02 07:17:13;;;;;;;;;;;;;;;;;;5067347;28;19927;-56
2022/12/02 07:19:39;;;;;;;;;;;;;;;;;;5067475;28;19921;-56
2022/12/02 07:22:05;;;;;;;;;;;;;;;;;;5067549;28;19921;-57
2022/12/02 07:24:31;;;;;;;;;;;;;;;;;;5067088;28;20615;-56
2022/12/02 07:26:57;;;;;;;;;;;;;;;;;;5067860;28;20023;-56
2022/12/02 07:29:23;;;;;;;;;;;;;;;;;;5066523;28;19924;-56
2022/12/02 07:31:48;;;;;;;;;;;;;;;;;;5066609;28;19927;-57
2022/12/02 07:34:14;;;;;;;;;;;;;;;;;;5067318;28;19924;-57
2022/12/02 07:36:40;;;;;;;;;;;;;;;;;;5065398;28;19928;-56
2022/12/02 07:39:06;;;;;;;;;;;;;;;;;;5066949;28;19929;-58
2022/12/02 07:41:32;;;;;;;;;;;;;;;;;;5064561;28;19928;-58
2022/12/02 07:43:58;;;;;;;;;;;;;;;;;;5067586;28;20367;-58
2022/12/02 07:46:24;;;;;;;;;;;;;;;;;;5066444;28;19927;-58
2022/12/02 07:48:50;;;;;;;;;;;;;;;;;;5065662;28;19925;-59
2022/12/02 07:51:16;;;;;;;;;;;;;;;;;;5067684;28;20299;-58
2022/12/02 07:53:42;;;;;;;;;;;;;;;;;;5066186;28;19928;-57
2022/12/02 07:56:07;;;;;;;;;;;;;;;;;;5067398;28;19931;-57
2022/12/02 07:58:33;;;;;;;;;;;;;;;;;;5066012;28;20289;-59
2022/12/02 08:00:59;;;;;;;;;;;;;;;;;;5066841;28;19928;-59
2022/12/02 08:03:25;;;;;;;;;;;;;;;;;;5068642;28;19924;-58
2022/12/02 08:05:51;;;;;;;;;;;;;;;;;;5067277;28;20866;-59
2022/12/02 08:08:17;;;;;;;;;;;;;;;;;;5067515;28;19967;-59
2022/12/02 08:10:43;;;;;;;;;;;;;;;;;;5067873;28;20383;-59
2022/12/02 08:13:09;;;;;;;;;;;;;;;;;;5066780;28;19931;-58
2022/12/02 08:15:35;;;;;;;;;;;;;;;;;;5065912;28;20406;-58
2022/12/02 08:18:01;;;;;;;;;;;;;;;;;;5068895;28;19920;-59
2022/12/02 08:20:28;;;;;;;38.25;18.63;;;;;;;;;;5066253;28;19927;-58
2022/12/02 08:22:54;;;;;;;40.08;19.25;;;;;;;;;;5067519;28;20040;-58
2022/12/02 08:25:20;;;;;;;31.80;15.85;;;;;;;;;;5066788;28;20090;-59
2022/12/02 08:27:46;;;;;;;;;;;;;;;;;;5066836;28;19931;-56
2022/12/02 08:30:14;;;;;;;;;;;;;;;;;;5066189;28;19985;-56
2022/12/02 08:32:40;;;;;;;;;;;;;;;;;;5067277;28;20156;-57
2022/12/02 08:35:06;;;;;;;;;;;;;;;;;;5066519;28;19960;-56
2022/12/02 08:37:31;;;;;;;;;;;;;;;;;;5066754;28;19921;-56
2022/12/02 08:39:57;;;;;;;;;;;;;;;;;;5067037;28;19920;-57
2022/12/02 08:42:23;;;;;;;;;;;;;;;;;;5066135;28;19927;-57
2022/12/02 08:44:49;;;;;;;;;;;;;;;;;;5064658;28;19935;-56
2022/12/02 08:47:15;;;;;;;;;;;;;;;;;;5067333;28;19924;-54
2022/12/02 08:49:41;;;;;;;;;;;;;;;;;;5066588;28;20544;-48
2022/12/02 08:52:07;;;;;;;;;;;;;;;;;;5066793;28;20018;-56
2022/12/02 08:54:33;;;;;;;;;;;;;;;;;;5061530;28;20295;-57
2022/12/02 08:56:59;;;;;;;;;;;;;;;;;;5063925;28;19931;-54
2022/12/02 08:59:25;;;;;;;;;;;;;;;;;;5064910;28;20444;-55
2022/12/02 09:01:51;;;;;;;;;;;;;;;;;;5065387;28;19920;-56
2022/12/02 09:04:17;;;;;;;;;;;;;;;;;;5065425;28;19920;-56
2022/12/02 09:06:42;;;;;;;;;;;;;;;;;;5065554;28;19943;-57
2022/12/02 09:09:09;;;;;;;;;;;;;;;;;;5065763;28;19928;-57
2022/12/02 09:11:35;;;;;;;;;;;;;;;;;;5098657;28;19925;-57
2022/12/02 09:14:01;;;;;;;;;;;;;;;;;;5068407;28;19928;-57
2022/12/02 09:16:27;;;;;;;32.00;16.52;;;;;;;;;;5067185;28;19935;-56
2022/12/02 09:18:54;;;;;;;;;;;;;;;;;;5063561;28;20047;-57
2022/12/02 09:21:20;;;;;;;;;;;;;;;;;;5064294;28;20302;-57
2022/12/02 09:23:46;;;;;;;24.63;12.48;;;;;;;;;;5063452;28;20059;-58
2022/12/02 09:26:12;;;;;;;32.72;15.82;;;;;;;;;;5064716;28;20044;-57
2022/12/02 09:28:38;;;;;;;32.50;17.60;;;;;;;;;;5068058;28;20106;-57
2022/12/02 09:31:04;;;;;;;30.98;15.30;;;;;;;;;;5076111;28;20124;-57
2022/12/02 09:33:30;;;;;;;28.60;14.65;;;;;;;;;;5066553;28;20481;-57
2022/12/02 09:35:56;;;;;;;24.75;14.43;;;;;;;;;;5074817;28;20044;-57
2022/12/02 09:38:22;;;;;;;32.17;14.25;;;;;;;;;;5062385;28;20453;-57
2022/12/02 09:40:48;;;;;;;22.38;11.30;;;;;;;;;;5063144;28;20037;-57
2022/12/02 09:43:14;;;;;;;24.25;12.52;;;;;;;;;;5063863;28;20049;-57
2022/12/02 09:45:41;;;;;;;32.45;14.35;;;;;;;;;;5054650;28;20044;-57
2022/12/02 09:48:07;;;;;;;23.88;12.23;;;;;;;;;;5062806;28;20642;-57
2022/12/02 09:50:33;;;;;;;26.08;12.50;;;;;;;;;;5064780;28;20036;-56
2022/12/02 09:53:04;;;;;;;20.90;11.95;;;;;;;;;;5069185;28;20606;-56
2022/12/02 09:55:30;;;;;;;27.00;12.70;;;;;;;;;;5065760;28;20080;-57
2022/12/02 09:57:58;;;;;;;25.67;13.15;;;;;;;;;;5068627;28;20041;-56
2022/12/02 10:00:24;;;;;;;24.35;12.50;;;;;;;;;;5063139;28;20380;-56
2022/12/02 10:02:51;;;;;;;23.65;11.73;;;;;;;;;;5071953;28;20059;-56
2022/12/02 10:05:20;;;;;;;26.48;12.60;;;;;;;;;;5065160;28;20266;-56
2022/12/02 10:07:46;;;;;;;28.52;14.88;;;;;;;;;;5062788;28;20059;-56
2022/12/02 10:10:14;;;;;;;26.90;14.73;;;;;;;;;;5066662;28;20046;-56
2022/12/02 10:12:40;;;;;;;23.00;12.13;;;;;;;;;;5071426;28;20114;-56
2022/12/02 10:15:07;;;;;;;27.70;15.02;;;;;;;;;;5060350;28;20308;-55
2022/12/02 10:17:33;;;;;;;27.58;13.25;;;;;;;;;;5069311;28;20040;-56
2022/12/02 10:19:59;;;;;;;28.80;15.15;;;;;;;;;;5077735;28;20057;-56
2022/12/02 10:22:25;;;;;;;32.67;16.38;;;;;;;;;;5059255;28;20055;-56
2022/12/02 10:24:51;;;;;;;30.58;15.63;;;;;;;;;;5072230;28;20076;-56
2022/12/02 10:27:24;;;;;;;31.80;16.27;;;;;;;;;;5076725;28;20079;-56
2022/12/02 10:29:50;;;;;;;30.73;15.85;;;;;;;;;;5064223;28;20048;-56
2022/12/02 10:32:20;;;;;;;35.47;18.20;;;;;;;;;;5072299;28;20546;-56
2022/12/02 10:35:01;;;;;;;34.28;18.13;;;;;;;;;;5062290;28;20119;-56
2022/12/02 10:37:28;;;;;;;33.80;16.23;;;;;;;;;;5067419;28;20124;-56
2022/12/02 10:40:06;;;;;;;32.30;17.05;;;;;;;;;;5068483;28;20052;-56
2022/12/02 10:42:32;;;;;;;36.08;17.50;;;;;;;;;;5066629;28;20514;-57
2022/12/02 10:45:17;;;;;;;30.92;15.65;;;;;;;;;;5066045;28;20040;-56
2022/12/02 10:47:43;;;;;;;29.90;15.55;;;;;;;;;;5064834;28;20095;-56
2022/12/02 10:50:17;;;;;;;28.50;15.30;;;;;;;;;;5067814;28;20048;-57
2022/12/02 10:52:50;;;;;;;25.65;13.65;;;;;;;;;;5068022;28;20514;-56
2022/12/02 10:55:17;;;;;;;30.17;16.15;;;;;;;;;;5067323;28;20044;-56
2022/12/02 10:57:44;;;;;;;32.83;17.30;;;;;;;;;;5068210;28;20446;-54
2022/12/02 11:00:14;;;;;;;33.97;18.52;;;;;;;;;;5067230;28;20108;-57
2022/12/02 11:02:51;;;;;;;37.40;19.80;;;;;;;;;;5072256;28;20052;-57
2022/12/02 11:05:22;;;;;;;38.13;19.92;;;;;;;;;;5062841;28;20155;-57
2022/12/02 11:07:50;;;;;;;33.47;18.67;;;;;;;;;;5070335;28;20044;-56
2022/12/02 11:10:20;;;;;;;38.10;20.13;;;;;;;;;;5066064;28;20277;-55
2022/12/02 11:12:53;;;;;;;35.88;18.30;;;;;;;;;;5066896;28;20061;-57
2022/12/02 11:15:42;;;;;;;34.97;19.92;;;;;;;;;;5064923;28;20094;-57
2022/12/02 11:18:10;;;;;;;34.90;19.95;;;;;;;;;;5063456;28;20047;-56
2022/12/02 11:20:43;;;;;;;35.33;20.20;;;;;;;;;;5068936;28;20098;-55
2022/12/02 11:23:23;;;;;;;31.15;19.33;;;;;;;;;;5061298;28;20060;-56
2022/12/02 11:25:50;;;;;;;37.45;20.60;;;;;;;;;;5063928;28;20041;-56
2022/12/02 11:28:29;;;;;;;36.83;21.45;;;;;;;;;;5068525;28;20040;-56
2022/12/02 11:31:10;;;;;;;38.30;22.77;;;;;;;;;;5065831;28;20044;-56
2022/12/02 11:33:43;;;;;;;37.90;21.70;;;;;;;;;;5063856;28;20541;-56
2022/12/02 11:36:09;;;;;;;39.33;22.85;;;;;;;;;;5063261;28;20290;-56
2022/12/02 11:39:00;;;;;;;34.08;20.65;;;;;;;;;;5063914;28;20613;-57
2022/12/02 11:41:46;;;;;;;30.92;18.30;;;;;;;;;;5059775;28;20056;-56
2022/12/02 11:44:21;;;;;;;27.40;17.75;;;;;;;;;;5042170;28;20052;-58
2022/12/02 11:46:49;;;;;;;34.20;19.02;;;;;;;;;;5067775;28;20053;-54
2022/12/02 11:49:41;;;;;;;36.33;22.08;;;;;;;;;;5069383;28;20036;-57
2022/12/02 11:52:12;;;;;;;38.33;22.92;;;;;;;;;;5065132;28;20056;-56
2022/12/02 11:54:39;;;;;;;41.50;24.23;;;;;;;;;;5065963;28;20517;-56
2022/12/02 11:57:06;;;;;;;36.47;22.90;;;;;;;;;;5057264;28;20048;-56
2022/12/02 11:59:33;;;;;;;38.45;22.45;;;;;;;;;;5060587;28;20044;-56
2022/12/02 12:02:10;;;;;;;34.05;20.25;;;;;;;;;;5044444;28;20045;-56
2022/12/02 12:04:36;;;;;;;34.33;19.75;;;;;;;;;;5058269;28;20543;-56
2022/12/02 12:07:02;;;;;;;34.65;20.83;;;;;;;;;;5060185;28;20048;-56
2022/12/02 12:09:29;;;;;;;34.22;20.50;;;;;;;;;;5063731;28;20470;-56
2022/12/02 12:12:07;;;;;;;30.90;20.30;;;;;;;;;;5063823;28;20102;-55
2022/12/02 12:14:33;;;;;;;28.80;18.60;;;;;;;;;;5062267;28;20738;-56
2022/12/02 12:17:16;;;;;;;33.15;19.63;;;;;;;;;;5064108;28;20115;-56
2022/12/02 12:19:42;;;;;;;28.67;18.35;;;;;;;;;;5063206;28;20054;-56
2022/12/02 12:22:24;;;;;;;32.38;19.73;;;;;;;;;;5063564;28;20075;-56
2022/12/02 12:24:50;;;;;;;32.47;20.80;;;;;;;;;;5063637;28;20438;-56
2022/12/02 12:27:32;;;;;;;31.33;19.10;;;;;;;;;;5063300;28;20056;-56
2022/12/02 12:29:58;;;;;;;;;;;;;;;;;;5065296;28;20592;-56
2022/12/02 12:32:24;;;;;;;29.65;18.17;;;;;;;;;;5066731;28;19926;-56
2022/12/02 12:34:50;;;;;;;32.65;20.33;;;;;;;;;;5066348;28;20046;-56
2022/12/02 12:37:16;;;;;;;29.85;18.27;;;;;;;;;;5066413;28;20445;-56
2022/12/02 12:39:42;;;;;;;27.98;17.60;;;;;;;;;;5066815;28;20048;-56
2022/12/02 12:42:08;;;;;;;29.25;18.70;;;;;;;;;;5066039;28;20102;-56
2022/12/02 12:44:34;;;;;;;30.58;19.73;;;;;;;;;;5066475;28;20403;-56
2022/12/02 12:47:02;;;;;;;28.70;17.52;;;;;;;;;;5065783;28;20123;-56
2022/12/02 12:49:29;;;;;;;26.17;17.38;;;;;;;;;;5066083;28;21036;-56
2022/12/02 12:51:55;;;;;;;32.90;20.25;;;;;;;;;;5066469;28;20047;-56
2022/12/02 12:54:21;;;;;;;31.98;19.50;;;;;;;;;;5065415;28;20098;-56
2022/12/02 12:56:47;;;;;;;31.88;19.67;;;;;;;;;;5066534;28;20045;-57
2022/12/02 12:59:12;;;;;;;31.70;19.65;;;;;;;;;;5066167;28;20041;-56
2022/12/02 13:01:39;;;;;;;30.50;17.92;;;;;;;;;;5065610;28;20083;-56
2022/12/02 13:04:05;;;;;;;32.40;19.15;;;;;;;;;;5066412;28;20044;-56
2022/12/02 13:06:31;;;;;;;32.15;20.15;;;;;;;;;;5064953;28;20051;-56
2022/12/02 13:08:57;;;;;;;29.58;18.50;;;;;;;;;;5065347;28;20085;-56
2022/12/02 13:11:23;;;;;;;25.83;16.52;;;;;;;;;;5064806;28;20064;-56
2022/12/02 13:13:49;;;;;;;26.30;16.67;;;;;;;;;;5066087;28;20045;-56
2022/12/02 13:16:15;;;;;;;27.17;16.02;;;;;;;;;;5061854;28;20036;-56
2022/12/02 13:18:41;;;;;;;27.00;15.35;;;;;;;;;;5064911;28;20059;-56
2022/12/02 13:21:07;;;;;;;23.65;14.82;;;;;;;;;;5064819;28;20374;-56
2022/12/02 13:23:33;;;;;;;23.08;14.57;;;;;;;;;;5063308;28;20041;-54
2022/12/02 13:25:59;;;;;;;24.00;14.63;;;;;;;;;;5056539;28;20464;-56
2022/12/02 13:28:25;;;;;;;20.30;13.20;;;;;;;;;;5065229;28;20044;-55
2022/12/02 13:30:52;;;;;;;21.95;13.95;;;;;;;;;;5061773;28;20040;-56
2022/12/02 13:33:18;;;;;;;23.65;15.68;;;;;;;;;;5051741;28;20098;-55
2022/12/02 13:35:44;;;;;;;25.35;15.23;;;;;;;;;;5066587;28;20037;-55
2022/12/02 13:38:10;;;;;;;27.42;15.70;;;;;;;;;;5053587;28;20045;-56
2022/12/02 13:40:36;;;;;;;25.67;15.90;;;;;;;;;;5045994;28;20863;-56
2022/12/02 13:43:02;;;;;;;26.90;16.45;;;;;;;;;;5055190;28;20056;-56
2022/12/02 13:45:29;;;;;;;29.08;18.30;;;;;;;;;;5044803;28;20049;-56
2022/12/02 13:47:55;;;;;;;29.92;18.27;;;;;;;;;;5045758;28;20086;-55
2022/12/02 13:50:21;;;;;;;30.95;17.90;;;;;;;;;;5044911;28;20053;-56
2022/12/02 13:52:47;;;;;;;32.67;19.00;;;;;;;;;;5050918;28;20056;-56
2022/12/02 13:55:13;;;;;;;32.80;21.02;;;;;;;;;;5059606;28;20385;-56
2022/12/02 13:57:39;;;;;;;34.00;21.45;;;;;;;;;;5065060;28;20045;-56
2022/12/02 14:00:05;;;;;;;30.02;19.40;;;;;;;;;;5070764;28;20055;-56
2022/12/02 14:02:31;;;;;;;29.90;18.27;;;;;;;;;;5066347;28;20380;-55
2022/12/02 14:04:57;;;;;;;31.55;18.65;;;;;;;;;;5060325;28;20068;-56
2022/12/02 14:07:23;;;;;;;30.42;18.15;;;;;;;;;;5076948;28;20079;-56
2022/12/02 14:09:49;;;;;;;31.17;18.83;;;;;;;;;;5063459;28;20228;-57
2022/12/02 14:12:15;;;;;;;34.00;21.38;;;;;;;;;;5062987;28;20068;-56
2022/12/02 14:14:41;;;;;;;33.83;19.65;;;;;;;;;;5064403;28;20164;-56
2022/12/02 14:17:08;;;;;;;34.60;20.08;;;;;;;;;;5064451;28;20415;-56
2022/12/02 14:19:34;;;;;;;28.63;18.33;;;;;;;;;;5096052;28;20452;-55
2022/12/02 14:22:00;;;;;;;32.42;20.80;;;;;;;;;;5064985;28;20048;-56
2022/12/02 14:24:26;;;;;;;33.10;20.35;;;;;;;;;;5064470;28;20041;-56
2022/12/02 14:26:52;;;;;;;31.15;19.23;;;;;;;;;;5063709;28;20109;-57
2022/12/02 14:29:17;;;;;;;31.30;19.17;;;;;;;;;;5064321;28;20543;-56
2022/12/02 14:31:43;;;;;;;30.15;18.10;;;;;;;;;;5064028;28;20048;-56
2022/12/02 14:34:09;;;;;;;34.70;20.65;;;;;;;;;;5061754;28;20071;-56
2022/12/02 14:36:36;;;;;;;35.45;20.58;;;;;;;;;;5063923;28;20394;-57
2022/12/02 14:39:02;;;;;;;31.52;19.27;;;;;;;;;;5063827;28;20090;-56
2022/12/02 14:41:28;;;;;;;35.03;22.27;;;;;;;;;;5062922;28;20397;-56
2022/12/02 14:43:54;;;;;;;38.30;21.15;;;;;;;;;;5064353;28;20094;-56
2022/12/02 14:46:20;;;;;;;38.83;21.80;;;;;;;;;;5064286;28;20090;-56
2022/12/02 14:48:46;;;;;;;36.20;19.40;;;;;;;;;;5068232;28;20051;-56
2022/12/02 14:51:12;;;;;;;35.47;19.67;;;;;;;;;;5067508;28;20037;-56
2022/12/02 14:53:38;;;;;;;36.05;21.98;;;;;;;;;;5067057;28;20048;-57
2022/12/02 14:56:04;;;;;;;39.67;22.27;;;;;;;;;;5068034;28;20116;-56
2022/12/02 14:58:30;;;;;;;36.22;21.25;;;;;;;;;;5075625;28;20048;-56
2022/12/02 15:00:55;;;;;;;;;;;;;;;;;;5067307;28;20133;-56
2022/12/02 15:03:21;;;;;;;;;;;;;;;;;;5068268;28;20325;-57
2022/12/02 15:05:47;;;;;;;;;;;;;;;;;;5068226;28;19924;-57
2022/12/02 15:08:13;;;;;;;;;;;;;;;;;;5064518;28;19928;-57